createdAt,value
2019-01-25T00:00:26.695Z,-3.50
2019-01-25T00:02:55.115Z,-3.50
2019-01-25T00:05:23.596Z,-3.50
2019-01-25T00:07:52.100Z,-3.60
2019-01-25T00:10:20.520Z,-3.60
2019-01-25T00:12:48.944Z,-3.50
2019-01-25T00:15:17.600Z,-3.50
2019-01-25T00:17:46.088Z,-3.60
2019-01-25T00:20:15.063Z,-3.50
2019-01-25T00:22:44.012Z,-3.50
2019-01-25T00:25:12.585Z,-3.50
2019-01-25T00:27:41.008Z,-3.50
2019-01-25T00:30:17.954Z,-3.50
2019-01-25T00:32:46.399Z,-3.50
2019-01-25T00:35:14.932Z,-3.60
2019-01-25T00:37:43.352Z,-3.60
2019-01-25T00:40:17.692Z,-3.50
2019-01-25T00:42:46.128Z,-3.60
2019-01-25T00:45:14.991Z,-3.60
2019-01-25T00:47:43.415Z,-3.70
2019-01-25T00:50:20.956Z,-3.70
2019-01-25T00:52:49.823Z,-3.70
2019-01-25T00:55:18.483Z,-3.70
2019-01-25T00:57:47.136Z,-3.70
2019-01-25T01:00:18.620Z,-3.60
2019-01-25T01:02:47.118Z,-3.60
2019-01-25T01:05:15.976Z,-3.70
2019-01-25T01:07:45.160Z,-3.70
2019-01-25T01:10:26.711Z,-3.70
2019-01-25T01:12:55.103Z,-3.70
2019-01-25T01:15:23.527Z,-3.70
2019-01-25T01:17:51.947Z,-3.70
2019-01-25T01:20:21.404Z,-3.70
2019-01-25T01:22:53.576Z,-3.80
2019-01-25T01:25:21.999Z,-3.90
2019-01-25T01:27:50.497Z,-3.90
2019-01-25T01:30:21.520Z,-3.80
2019-01-25T01:32:50.278Z,-3.80
2019-01-25T01:35:18.698Z,-3.80
2019-01-25T01:37:47.680Z,-3.80
2019-01-25T01:40:21.940Z,-3.90
2019-01-25T01:42:49.305Z,-3.90
2019-01-25T01:45:18.270Z,-4.00
2019-01-25T01:47:46.815Z,-3.90
2019-01-25T01:50:16.880Z,-3.90
2019-01-25T01:52:45.612Z,-3.90
2019-01-25T01:55:14.366Z,-3.90
2019-01-25T01:57:43.210Z,-3.90
2019-01-25T02:00:19.783Z,-3.90
2019-01-25T02:02:48.341Z,-3.90
2019-01-25T02:05:16.823Z,-4.00
2019-01-25T02:07:45.235Z,-4.00
2019-01-25T02:10:29.001Z,-4.00
2019-01-25T02:12:53.108Z,-4.00
2019-01-25T02:15:22.673Z,-4.00
2019-01-25T02:17:51.958Z,-4.00
2019-01-25T02:20:25.739Z,-3.90
2019-01-25T02:22:54.389Z,-3.90
2019-01-25T02:25:22.881Z,-3.80
2019-01-25T02:27:51.351Z,-3.90
2019-01-25T02:30:21.919Z,-3.80
2019-01-25T02:32:50.332Z,-3.70
2019-01-25T02:35:18.756Z,-3.70
2019-01-25T02:37:47.338Z,-3.80
2019-01-25T02:40:20.766Z,-3.70
2019-01-25T02:42:49.246Z,-3.70
2019-01-25T02:45:17.804Z,-3.70
2019-01-25T02:47:46.305Z,-3.70
2019-01-25T02:50:19.128Z,-3.70
2019-01-25T02:52:47.606Z,-3.80
2019-01-25T02:55:17.265Z,-3.80
2019-01-25T02:57:45.919Z,-3.80
2019-01-25T03:00:22.564Z,-3.80
2019-01-25T03:02:51.636Z,-3.90
2019-01-25T03:05:21.618Z,-4.00
2019-01-25T03:07:50.800Z,-4.00
2019-01-25T03:10:28.209Z,-4.00
2019-01-25T03:12:51.088Z,-4.00
2019-01-25T03:15:21.852Z,-4.00
2019-01-25T03:17:50.340Z,-4.00
2019-01-25T03:20:19.810Z,-3.90
2019-01-25T03:22:48.221Z,-3.90
2019-01-25T03:25:19.290Z,-3.80
2019-01-25T03:27:47.835Z,-3.70
2019-01-25T03:30:19.367Z,-3.70
2019-01-25T03:32:47.875Z,-3.70
2019-01-25T03:35:18.142Z,-3.70
2019-01-25T03:37:46.802Z,-3.70
2019-01-25T03:40:17.909Z,-3.70
2019-01-25T03:42:46.408Z,-3.80
2019-01-25T03:45:15.980Z,-3.70
2019-01-25T03:47:44.601Z,-3.80
2019-01-25T03:50:24.337Z,-3.90
2019-01-25T03:52:52.931Z,-4.00
2019-01-25T03:55:21.520Z,-3.90
2019-01-25T03:57:49.961Z,-3.90
2019-01-25T04:00:23.570Z,-3.90
2019-01-25T04:02:52.064Z,-3.90
2019-01-25T04:05:20.650Z,-3.90
2019-01-25T04:07:49.193Z,-3.90
2019-01-25T04:10:23.622Z,-3.90
2019-01-25T04:12:52.201Z,-3.90
2019-01-25T04:15:23.528Z,-4.00
2019-01-25T04:17:52.134Z,-4.00
2019-01-25T04:20:22.321Z,-4.00
2019-01-25T04:22:50.946Z,-4.10
2019-01-25T04:25:21.366Z,-4.00
2019-01-25T04:27:50.161Z,-4.00
2019-01-25T04:30:33.010Z,-4.00
2019-01-25T04:33:01.814Z,-4.00
2019-01-25T04:35:52.286Z,-3.90
2019-01-25T04:38:20.701Z,-3.90
2019-01-25T04:40:49.149Z,-3.90
2019-01-25T04:43:17.565Z,-3.90
2019-01-25T04:45:46.078Z,-3.90
2019-01-25T04:48:14.833Z,-3.90
2019-01-25T04:50:43.275Z,-4.00
2019-01-25T04:53:11.704Z,-4.00
2019-01-25T04:55:40.186Z,-4.00
2019-01-25T04:58:13.705Z,-4.00
2019-01-25T05:00:42.564Z,-4.00
2019-01-25T05:03:11.215Z,-3.90
2019-01-25T05:05:39.708Z,-4.00
2019-01-25T05:08:18.604Z,-4.00
2019-01-25T05:10:47.157Z,-3.90
2019-01-25T05:13:15.579Z,-3.90
2019-01-25T05:15:44.139Z,-3.90
2019-01-25T05:18:12.786Z,-3.90
2019-01-25T05:20:41.191Z,-3.90
2019-01-25T05:23:10.159Z,-3.90
2019-01-25T05:25:38.726Z,-4.00
2019-01-25T05:28:17.236Z,-4.00
2019-01-25T05:30:53.683Z,-4.10
2019-01-25T05:33:22.121Z,-4.10
2019-01-25T05:35:50.875Z,-4.00
2019-01-25T05:38:19.298Z,-4.00
2019-01-25T05:40:47.717Z,-3.90
2019-01-25T05:43:16.149Z,-3.90
2019-01-25T05:45:46.003Z,-3.80
2019-01-25T05:48:14.573Z,-3.80
2019-01-25T05:50:43.004Z,-3.70
2019-01-25T05:53:11.441Z,-3.70
2019-01-25T05:55:39.882Z,-3.60
2019-01-25T05:58:09.653Z,-3.60
2019-01-25T06:00:39.700Z,-3.60
2019-01-25T06:03:12.636Z,-3.60
2019-01-25T06:05:41.311Z,-3.60
2019-01-25T06:08:30.167Z,-3.60
2019-01-25T06:11:00.223Z,-3.50
2019-01-25T06:13:28.641Z,-3.60
2019-01-25T06:15:57.058Z,-3.60
2019-01-25T06:18:25.501Z,-3.60
2019-01-25T06:20:55.655Z,-3.60
2019-01-25T06:23:24.079Z,-3.70
2019-01-25T06:25:53.844Z,-3.60
2019-01-25T06:28:22.348Z,-3.70
2019-01-25T06:30:50.785Z,-3.70
2019-01-25T06:33:19.204Z,-3.70
2019-01-25T06:35:47.616Z,-3.70
2019-01-25T06:38:16.052Z,-3.70
2019-01-25T06:40:44.478Z,-3.70
2019-01-25T06:43:12.895Z,-3.70
2019-01-25T06:45:41.454Z,-3.70
2019-01-25T06:48:10.111Z,-3.70
2019-01-25T06:50:38.528Z,-3.70
2019-01-25T06:53:06.962Z,-3.80
2019-01-25T06:55:35.448Z,-3.80
2019-01-25T06:58:22.468Z,-3.90
2019-01-25T07:01:03.978Z,-3.80
2019-01-25T07:03:32.398Z,-3.80
2019-01-25T07:06:00.884Z,-3.80
2019-01-25T07:08:29.328Z,-3.80
2019-01-25T07:10:57.748Z,-3.80
2019-01-25T07:13:26.179Z,-3.80
2019-01-25T07:15:54.604Z,-3.70
2019-01-25T07:18:23.022Z,-3.70
2019-01-25T07:20:51.447Z,-3.60
2019-01-25T07:23:19.871Z,-3.60
2019-01-25T07:25:48.291Z,-3.70
2019-01-25T07:28:16.701Z,-3.70
2019-01-25T07:30:45.129Z,-3.60
2019-01-25T07:33:13.645Z,-3.60
2019-01-25T07:35:42.149Z,-3.60
2019-01-25T07:38:10.568Z,-3.50
2019-01-25T07:40:39.005Z,-3.50
2019-01-25T07:43:07.438Z,-3.50
2019-01-25T07:45:35.867Z,-3.50
2019-01-25T07:48:05.046Z,-3.50
2019-01-25T07:50:33.481Z,-3.50
2019-01-25T07:53:01.901Z,-3.50
2019-01-25T07:55:30.565Z,-3.50
2019-01-25T07:57:59.089Z,-3.50
2019-01-25T08:00:27.557Z,-3.50
2019-01-25T08:02:55.984Z,-3.40
2019-01-25T08:05:24.543Z,-3.30
2019-01-25T08:07:52.974Z,-3.30
2019-01-25T08:10:23.080Z,-3.20
2019-01-25T08:12:51.578Z,-3.20
2019-01-25T08:15:25.160Z,-3.20
2019-01-25T08:17:53.752Z,-3.20
2019-01-25T08:20:33.596Z,-3.20
2019-01-25T08:23:02.000Z,-3.10
2019-01-25T08:25:32.052Z,-3.00
2019-01-25T08:28:00.466Z,-3.00
2019-01-25T08:30:28.889Z,-2.90
2019-01-25T08:32:57.320Z,-2.80
2019-01-25T08:35:25.764Z,-2.80
2019-01-25T08:37:54.236Z,-2.70
2019-01-25T08:40:22.646Z,-2.70
2019-01-25T08:42:51.161Z,-2.80
2019-01-25T08:45:19.922Z,-2.80
2019-01-25T08:47:48.473Z,-2.70
2019-01-25T08:50:25.153Z,-2.70
2019-01-25T08:52:53.905Z,-2.80
2019-01-25T08:55:22.418Z,-2.80
2019-01-25T08:57:51.124Z,-2.80
2019-01-25T09:00:24.784Z,-2.90
2019-01-25T09:02:53.439Z,-2.90
2019-01-25T09:05:22.011Z,-2.70
2019-01-25T09:07:50.657Z,-2.50
2019-01-25T09:10:20.934Z,-2.30
2019-01-25T09:12:49.336Z,-2.20
2019-01-25T09:15:26.618Z,-2.10
2019-01-25T09:17:55.040Z,-2.10
2019-01-25T09:20:23.518Z,-2.10
2019-01-25T09:22:51.948Z,-2.20
2019-01-25T09:25:20.360Z,-2.20
2019-01-25T09:27:48.848Z,-2.20
2019-01-25T09:30:27.969Z,-2.20
2019-01-25T09:32:56.458Z,-2.20
2019-01-25T09:35:24.892Z,-2.20
2019-01-25T09:37:53.835Z,-2.20
2019-01-25T09:40:24.358Z,-2.30
2019-01-25T09:42:53.103Z,-2.30
2019-01-25T09:45:21.965Z,-2.30
2019-01-25T09:47:50.471Z,-2.30
2019-01-25T09:50:20.511Z,-2.30
2019-01-25T09:52:48.939Z,-2.30
2019-01-25T09:55:20.255Z,-2.20
2019-01-25T09:57:48.753Z,-2.20
2019-01-25T10:00:31.956Z,-2.20
2019-01-25T10:03:00.382Z,-2.20
2019-01-25T10:05:28.872Z,-2.20
2019-01-25T10:07:57.294Z,-2.20
2019-01-25T10:10:25.715Z,-2.30
2019-01-25T10:12:54.131Z,-2.40
2019-01-25T10:15:29.880Z,-2.40
2019-01-25T10:17:58.307Z,-2.50
2019-01-25T10:20:26.871Z,-2.50
2019-01-25T10:22:55.356Z,-2.60
2019-01-25T10:25:23.839Z,-2.90
2019-01-25T10:27:52.339Z,-2.90
2019-01-25T10:30:23.656Z,-3.00
2019-01-25T10:32:52.156Z,-3.10
2019-01-25T10:35:21.221Z,-3.00
2019-01-25T10:37:50.276Z,-3.00
2019-01-25T10:40:20.235Z,-3.00
2019-01-25T10:42:53.149Z,-2.90
2019-01-25T10:45:24.635Z,-3.00
2019-01-25T10:47:53.047Z,-3.10
2019-01-25T10:50:21.479Z,-3.00
2019-01-25T10:52:49.972Z,-2.90
2019-01-25T10:55:18.473Z,-2.80
2019-01-25T10:57:47.119Z,-2.90
2019-01-25T11:00:17.771Z,-2.90
2019-01-25T11:02:46.283Z,-3.00
2019-01-25T11:05:23.162Z,-3.10
2019-01-25T11:07:51.753Z,-3.20
2019-01-25T11:10:20.429Z,-3.20
2019-01-25T11:12:49.080Z,-3.20
2019-01-25T11:15:20.151Z,-3.20
2019-01-25T11:17:48.666Z,-3.10
2019-01-25T11:20:19.644Z,-2.90
2019-01-25T11:22:48.487Z,-2.80
2019-01-25T11:25:20.012Z,-2.60
2019-01-25T11:27:48.441Z,-2.60
2019-01-25T11:30:17.491Z,-2.50
2019-01-25T11:32:45.912Z,-2.50
2019-01-25T11:35:14.391Z,-2.50
2019-01-25T11:37:42.890Z,-2.40
2019-01-25T11:40:23.136Z,-2.60
2019-01-25T11:42:51.555Z,-2.60
2019-01-25T11:45:20.103Z,-2.70
2019-01-25T11:47:48.789Z,-2.70
2019-01-25T11:50:19.414Z,-2.70
2019-01-25T11:52:47.977Z,-2.70
2019-01-25T11:55:18.105Z,-2.70
2019-01-25T11:57:46.575Z,-2.90
2019-01-25T12:00:20.710Z,-3.00
2019-01-25T12:02:49.121Z,-3.10
2019-01-25T12:05:20.380Z,-3.20
2019-01-25T12:07:49.237Z,-3.10
2019-01-25T12:10:23.535Z,-2.90
2019-01-25T12:12:52.195Z,-2.90
2019-01-25T12:15:20.668Z,-2.80
2019-01-25T12:17:49.227Z,-2.90
2019-01-25T12:20:31.855Z,-2.80
2019-01-25T12:23:00.547Z,-2.60
2019-01-25T12:25:29.034Z,-2.50
2019-01-25T12:27:57.780Z,-2.40
2019-01-25T12:30:31.285Z,-2.50
2019-01-25T12:32:59.687Z,-2.40
2019-01-25T12:35:33.652Z,-2.50
2019-01-25T12:38:02.147Z,-2.40
2019-01-25T12:40:30.559Z,-2.40
2019-01-25T12:42:59.050Z,-2.30
2019-01-25T12:45:29.670Z,-2.10
2019-01-25T12:47:58.094Z,-2.20
2019-01-25T12:50:41.045Z,-2.10
2019-01-25T12:53:11.007Z,-2.10
2019-01-25T12:55:39.561Z,-2.20
2019-01-25T12:58:08.120Z,-2.30
2019-01-25T13:00:36.544Z,-2.30
2019-01-25T13:03:05.612Z,-2.20
2019-01-25T13:05:34.029Z,-2.10
2019-01-25T13:08:02.456Z,-2.10
2019-01-25T13:10:30.944Z,-2.10
2019-01-25T13:12:59.504Z,-2.20
2019-01-25T13:15:27.948Z,-2.20
2019-01-25T13:17:56.360Z,-2.20
2019-01-25T13:20:31.269Z,-2.10
2019-01-25T13:22:59.683Z,-2.00
2019-01-25T13:25:28.115Z,-2.00
2019-01-25T13:27:58.828Z,-2.00
2019-01-25T13:30:28.984Z,-1.90
2019-01-25T13:32:57.716Z,-1.80
2019-01-25T13:35:26.201Z,-1.90
2019-01-25T13:37:57.899Z,-1.80
2019-01-25T13:40:27.540Z,-1.90
2019-01-25T13:42:55.969Z,-1.90
2019-01-25T13:45:24.908Z,-1.80
2019-01-25T13:47:53.662Z,-1.90
2019-01-25T13:50:29.155Z,-1.90
2019-01-25T13:52:57.641Z,-1.90
2019-01-25T13:55:26.303Z,-1.80
2019-01-25T13:57:54.718Z,-1.90
2019-01-25T14:00:36.025Z,-1.80
2019-01-25T14:03:05.264Z,-1.80
2019-01-25T14:05:33.678Z,-1.90
2019-01-25T14:08:02.105Z,-1.90
2019-01-25T14:10:35.500Z,-1.90
2019-01-25T14:13:04.568Z,-1.90
2019-01-25T14:15:33.133Z,-2.00
2019-01-25T14:18:01.620Z,-1.90
2019-01-25T14:20:31.880Z,-2.00
2019-01-25T14:23:00.312Z,-1.90
2019-01-25T14:25:28.868Z,-1.90
2019-01-25T14:27:57.353Z,-1.80
2019-01-25T14:30:37.476Z,-1.80
2019-01-25T14:33:06.740Z,-1.90
2019-01-25T14:35:35.298Z,-2.00
2019-01-25T14:38:04.455Z,-2.00
2019-01-25T14:40:32.872Z,-2.10
2019-01-25T14:43:01.293Z,-2.20
2019-01-25T14:45:29.847Z,-2.20
2019-01-25T14:47:58.264Z,-2.20
2019-01-25T14:50:31.391Z,-2.10
2019-01-25T14:53:00.047Z,-2.20
2019-01-25T14:55:28.623Z,-2.20
2019-01-25T14:57:57.182Z,-2.20
2019-01-25T15:00:25.593Z,-2.30
2019-01-25T15:02:54.576Z,-2.30
2019-01-25T15:05:23.131Z,-2.30
2019-01-25T15:07:51.564Z,-2.30
2019-01-25T15:10:22.207Z,-2.20
2019-01-25T15:12:51.172Z,-2.30
2019-01-25T15:15:19.790Z,-2.40
2019-01-25T15:17:48.512Z,-2.50
2019-01-25T15:20:19.784Z,-2.60
2019-01-25T15:22:48.187Z,-2.80
2019-01-25T15:25:16.853Z,-2.80
2019-01-25T15:27:45.523Z,-2.80
2019-01-25T15:30:19.200Z,-2.90
2019-01-25T15:32:47.687Z,-2.90
2019-01-25T15:35:18.165Z,-2.80
2019-01-25T15:37:46.649Z,-2.90
2019-01-25T15:40:17.207Z,-2.90
2019-01-25T15:42:45.717Z,-2.90
2019-01-25T15:45:16.551Z,-2.90
2019-01-25T15:47:45.119Z,-2.80
2019-01-25T15:50:16.765Z,-2.80
2019-01-25T15:52:45.428Z,-2.80
2019-01-25T15:55:13.987Z,-2.70
2019-01-25T15:57:42.888Z,-2.60
2019-01-25T16:00:14.015Z,-2.60
2019-01-25T16:02:42.513Z,-2.60
2019-01-25T16:05:13.282Z,-2.60
2019-01-25T16:07:41.690Z,-2.60
2019-01-25T16:10:12.920Z,-2.60
2019-01-25T16:12:41.345Z,-2.60
2019-01-25T16:15:15.103Z,-2.60
2019-01-25T16:17:43.716Z,-2.60
2019-01-25T16:20:14.384Z,-2.70
2019-01-25T16:22:42.942Z,-2.60
2019-01-25T16:25:16.756Z,-2.60
2019-01-25T16:27:45.267Z,-2.60
2019-01-25T16:30:19.098Z,-2.60
2019-01-25T16:32:47.527Z,-2.70
2019-01-25T16:35:16.120Z,-2.70
2019-01-25T16:37:44.531Z,-2.60
2019-01-25T16:40:17.859Z,-2.60
2019-01-25T16:42:46.460Z,-2.60
2019-01-25T16:45:23.424Z,-2.50
2019-01-25T16:47:51.846Z,-2.60
2019-01-25T16:50:23.825Z,-2.60
2019-01-25T16:52:50.408Z,-2.60
2019-01-25T16:55:19.760Z,-2.60
2019-01-25T16:57:48.195Z,-2.70
2019-01-25T17:00:23.523Z,-2.70
2019-01-25T17:02:51.946Z,-2.70
2019-01-25T17:05:20.445Z,-2.70
2019-01-25T17:07:49.839Z,-2.70
2019-01-25T17:10:18.404Z,-2.70
2019-01-25T17:12:46.953Z,-2.70
2019-01-25T17:15:16.410Z,-2.70
2019-01-25T17:17:44.970Z,-2.60
2019-01-25T17:20:21.326Z,-2.60
2019-01-25T17:22:49.096Z,-2.60
2019-01-25T17:25:17.587Z,-2.50
2019-01-25T17:27:46.183Z,-2.50
2019-01-25T17:30:26.257Z,-2.50
2019-01-25T17:32:56.124Z,-2.60
2019-01-25T17:35:24.540Z,-2.50
2019-01-25T17:37:53.028Z,-2.50
2019-01-25T17:40:24.189Z,-2.60
2019-01-25T17:42:52.648Z,-2.60
2019-01-25T17:45:21.064Z,-2.60
2019-01-25T17:47:49.478Z,-2.70
2019-01-25T17:50:17.952Z,-2.70
2019-01-25T17:52:46.363Z,-2.60
2019-01-25T17:55:16.528Z,-2.70
2019-01-25T17:57:44.943Z,-2.70
2019-01-25T18:00:20.829Z,-2.70
2019-01-25T18:02:49.252Z,-2.70
2019-01-25T18:05:17.677Z,-2.80
2019-01-25T18:07:46.083Z,-2.80
2019-01-25T18:10:16.649Z,-2.80
2019-01-25T18:12:45.056Z,-2.80
2019-01-25T18:15:15.789Z,-2.80
2019-01-25T18:17:44.362Z,-2.80
2019-01-25T18:20:17.931Z,-2.80
2019-01-25T18:22:46.358Z,-2.80
2019-01-25T18:25:32.766Z,-2.80
2019-01-25T18:28:04.016Z,-2.90
2019-01-25T18:30:41.140Z,-2.90
2019-01-25T18:33:09.579Z,-2.80
2019-01-25T18:35:38.000Z,-2.90
2019-01-25T18:38:06.565Z,-2.90
2019-01-25T18:40:34.977Z,-3.00
2019-01-25T18:43:03.400Z,-3.00
2019-01-25T18:45:31.815Z,-3.00
2019-01-25T18:48:00.241Z,-3.10
2019-01-25T18:50:28.661Z,-3.20
2019-01-25T18:52:57.090Z,-3.10
2019-01-25T18:55:26.159Z,-3.20
2019-01-25T18:57:54.587Z,-3.20
2019-01-25T19:00:23.255Z,-3.20
2019-01-25T19:02:51.690Z,-3.30
2019-01-25T19:05:20.184Z,-3.30
2019-01-25T19:07:48.598Z,-3.30
2019-01-25T19:10:20.099Z,-3.30
2019-01-25T19:12:48.515Z,-3.30
2019-01-25T19:15:19.815Z,-3.30
2019-01-25T19:17:48.399Z,-3.30
2019-01-25T19:20:18.259Z,-3.40
2019-01-25T19:22:46.673Z,-3.50
2019-01-25T19:25:15.172Z,-3.60
2019-01-25T19:27:43.595Z,-3.70
2019-01-25T19:30:29.480Z,-3.70
2019-01-25T19:32:57.892Z,-3.70
2019-01-25T19:35:26.314Z,-3.70
2019-01-25T19:37:54.883Z,-3.70
2019-01-25T19:40:26.368Z,-3.70
2019-01-25T19:42:54.871Z,-3.70
2019-01-25T19:45:23.455Z,-3.70
2019-01-25T19:47:52.013Z,-3.70
2019-01-25T19:50:20.883Z,-3.70
2019-01-25T19:52:49.364Z,-3.80
2019-01-25T19:55:23.420Z,-3.80
2019-01-25T19:57:52.036Z,-3.80
2019-01-25T20:00:29.067Z,-3.90
2019-01-25T20:02:57.567Z,-3.90
2019-01-25T20:05:28.240Z,-4.00
2019-01-25T20:07:56.877Z,-4.00
2019-01-25T20:10:25.445Z,-4.00
2019-01-25T20:12:53.872Z,-4.00
2019-01-25T20:15:23.937Z,-4.10
2019-01-25T20:17:52.420Z,-4.10
2019-01-25T20:20:23.454Z,-4.10
2019-01-25T20:22:51.940Z,-4.10
2019-01-25T20:25:20.522Z,-4.10
2019-01-25T20:27:49.085Z,-4.10
2019-01-25T20:30:23.152Z,-4.10
2019-01-25T20:32:51.573Z,-4.10
2019-01-25T20:35:25.583Z,-4.10
2019-01-25T20:37:54.075Z,-4.10
2019-01-25T20:40:22.496Z,-4.10
2019-01-25T20:42:50.925Z,-4.10
2019-01-25T20:45:27.202Z,-4.10
2019-01-25T20:47:55.295Z,-4.10
2019-01-25T20:50:28.834Z,-4.10
2019-01-25T20:52:57.323Z,-4.10
2019-01-25T20:55:26.304Z,-4.10
2019-01-25T20:57:55.574Z,-4.10
2019-01-25T21:00:35.010Z,-4.10
2019-01-25T21:03:04.007Z,-4.00
2019-01-25T21:05:32.914Z,-4.00
2019-01-25T21:08:01.667Z,-4.00
2019-01-25T21:10:30.322Z,-4.00
2019-01-25T21:12:59.021Z,-3.90
2019-01-25T21:15:35.111Z,-3.90
2019-01-25T21:17:59.057Z,-3.90
2019-01-25T21:20:30.541Z,-3.80
2019-01-25T21:22:59.434Z,-3.80
2019-01-25T21:25:28.064Z,-3.70
2019-01-25T21:27:56.666Z,-3.80
2019-01-25T21:30:33.439Z,-3.80
2019-01-25T21:33:02.030Z,-3.70
2019-01-25T21:35:30.656Z,-3.70
2019-01-25T21:38:00.351Z,-3.70
2019-01-25T21:40:30.919Z,-3.70
2019-01-25T21:42:59.567Z,-3.70
2019-01-25T21:45:30.059Z,-3.70
2019-01-25T21:47:58.652Z,-3.70
2019-01-25T21:50:29.709Z,-3.60
2019-01-25T21:52:58.129Z,-3.70
2019-01-25T21:55:26.564Z,-3.70
2019-01-25T21:57:54.972Z,-3.80
2019-01-25T22:00:26.205Z,-3.70
2019-01-25T22:02:54.704Z,-3.70
2019-01-25T22:05:23.498Z,-3.70
2019-01-25T22:07:52.047Z,-3.70
2019-01-25T22:10:28.464Z,-3.70
2019-01-25T22:12:57.029Z,-3.70
2019-01-25T22:15:25.443Z,-3.70
2019-01-25T22:17:53.924Z,-3.70
2019-01-25T22:20:24.511Z,-3.70
2019-01-25T22:22:52.995Z,-3.60
2019-01-25T22:25:21.758Z,-3.60
2019-01-25T22:27:51.723Z,-3.60
2019-01-25T22:30:24.065Z,-3.60
2019-01-25T22:32:52.547Z,-3.70
2019-01-25T22:35:21.502Z,-3.60
2019-01-25T22:37:49.999Z,-3.60
2019-01-25T22:40:24.417Z,-3.60
2019-01-25T22:42:53.138Z,-3.60
2019-01-25T22:45:24.083Z,-3.60
2019-01-25T22:47:52.630Z,-3.60
2019-01-25T22:50:23.647Z,-3.60
2019-01-25T22:52:52.060Z,-3.60
2019-01-25T22:55:21.711Z,-3.60
2019-01-25T22:57:50.672Z,-4.00
2019-01-25T23:00:46.261Z,-3.60
2019-01-25T23:03:17.401Z,-3.50
2019-01-25T23:06:21.596Z,-3.50
2019-01-25T23:08:50.028Z,-3.50
2019-01-25T23:11:18.604Z,-3.50
2019-01-25T23:13:47.034Z,-3.40
2019-01-25T23:16:15.446Z,-3.40
2019-01-25T23:18:43.872Z,-3.30
2019-01-25T23:21:12.304Z,-3.30
2019-01-25T23:23:40.722Z,-3.30
2019-01-25T23:26:09.150Z,-3.30
2019-01-25T23:28:37.595Z,-3.30
2019-01-25T23:31:06.094Z,-3.30
2019-01-25T23:33:34.555Z,-3.20
2019-01-25T23:36:03.110Z,-3.20
2019-01-25T23:38:31.536Z,-3.10
2019-01-25T23:40:59.945Z,-3.10
2019-01-25T23:43:28.365Z,-3.10
2019-01-25T23:45:56.771Z,-3.10
2019-01-25T23:48:25.188Z,-3.00
2019-01-25T23:50:53.595Z,-3.00
2019-01-25T23:53:22.018Z,-3.00
2019-01-25T23:55:50.435Z,-3.00
2019-01-25T23:58:18.855Z,-3.00
